sensor_id;sensor_type;location;lat;lon;timestamp;pressure;altitude;pressure_sealevel;temperature
78961;BMP280;68362;45.970;12.646;2023-03-13T00:00:07;101627.47;;;4.14
78961;BMP280;68362;45.970;12.646;2023-03-13T00:02:13;101628.88;;;4.09
78961;BMP280;68362;45.970;12.646;2023-03-13T00:03:15;101625.75;;;4.05
78961;BMP280;68362;45.970;12.646;2023-03-13T00:04:17;101626.72;;;4.04
78961;BMP280;68362;45.970;12.646;2023-03-13T00:05:19;101627.69;;;4.03
78961;BMP280;68362;45.970;12.646;2023-03-13T00:06:32;101625.09;;;4.03
78961;BMP280;68362;45.970;12.646;2023-03-13T00:07:34;101628.66;;;4.02
78961;BMP280;68362;45.970;12.646;2023-03-13T00:08:36;101632.06;;;4.03
78961;BMP280;68362;45.970;12.646;2023-03-13T00:09:38;101625.25;;;4.02
78961;BMP280;68362;45.970;12.646;2023-03-13T00:10:40;101628.78;;;4.01
78961;BMP280;68362;45.970;12.646;2023-03-13T00:11:43;101632.19;;;4.01
78961;BMP280;68362;45.970;12.646;2023-03-13T00:12:46;101628.78;;;4.01
78961;BMP280;68362;45.970;12.646;2023-03-13T00:13:47;101632.19;;;4.01
78961;BMP280;68362;45.970;12.646;2023-03-13T00:14:49;101632.19;;;4.01
78961;BMP280;68362;45.970;12.646;2023-03-13T00:15:59;101637.25;;;4.03
78961;BMP280;68362;45.970;12.646;2023-03-13T00:17:00;101635.47;;;4.03
78961;BMP280;68362;45.970;12.646;2023-03-13T00:18:03;101631.91;;;4.04
78961;BMP280;68362;45.970;12.646;2023-03-13T00:19:07;101638.84;;;4.04
78961;BMP280;68362;45.970;12.646;2023-03-13T00:20:09;101638.06;;;4.03
78961;BMP280;68362;45.970;12.646;2023-03-13T00:21:11;101639.19;;;4.01
78961;BMP280;68362;45.970;12.646;2023-03-13T00:22:13;101632.47;;;3.98
78961;BMP280;68362;45.970;12.646;2023-03-13T00:23:14;101638.66;;;3.97
78961;BMP280;68362;45.970;12.646;2023-03-13T00:24:16;101634.41;;;3.96
78961;BMP280;68362;45.970;12.646;2023-03-13T00:25:18;101636.03;;;3.97
78961;BMP280;68362;45.970;12.646;2023-03-13T00:26:24;101640.44;;;3.96
78961;BMP280;68362;45.970;12.646;2023-03-13T00:27:26;101628.25;;;3.97
78961;BMP280;68362;45.970;12.646;2023-03-13T00:28:30;101635.25;;;3.96
78961;BMP280;68362;45.970;12.646;2023-03-13T00:29:33;101639.47;;;3.97
78961;BMP280;68362;45.970;12.646;2023-03-13T00:30:35;101636.03;;;3.97
78961;BMP280;68362;45.970;12.646;2023-03-13T00:31:37;101636.34;;;3.94
78961;BMP280;68362;45.970;12.646;2023-03-13T00:32:43;101628.69;;;3.92
78961;BMP280;68362;45.970;12.646;2023-03-13T00:33:48;101633.06;;;3.92
78961;BMP280;68362;45.970;12.646;2023-03-13T00:34:50;101631.41;;;3.91
78961;BMP280;68362;45.970;12.646;2023-03-13T00:35:51;101634.03;;;3.91
78961;BMP280;68362;45.970;12.646;2023-03-13T00:36:53;101631.41;;;3.91
78961;BMP280;68362;45.970;12.646;2023-03-13T00:37:56;101626.56;;;3.88
78961;BMP280;68362;45.970;12.646;2023-03-13T00:38:58;101630.94;;;3.87
78961;BMP280;68362;45.970;12.646;2023-03-13T00:40:00;101638.84;;;3.86
78961;BMP280;68362;45.970;12.646;2023-03-13T00:41:10;101635.59;;;3.84
78961;BMP280;68362;45.970;12.646;2023-03-13T00:42:12;101627.66;;;3.85
78961;BMP280;68362;45.970;12.646;2023-03-13T00:43:14;101633.00;;;3.84
78961;BMP280;68362;45.970;12.646;2023-03-13T00:44:15;101633.94;;;3.83
78961;BMP280;68362;45.970;12.646;2023-03-13T00:45:17;101633.00;;;3.84
78961;BMP280;68362;45.970;12.646;2023-03-13T00:46:22;101632.31;;;3.82
78961;BMP280;68362;45.970;12.646;2023-03-13T00:47:24;101639.13;;;3.83
78961;BMP280;68362;45.970;12.646;2023-03-13T00:48:26;101638.19;;;3.84
78961;BMP280;68362;45.970;12.646;2023-03-13T00:49:28;101631.22;;;3.84
78961;BMP280;68362;45.970;12.646;2023-03-13T00:50:29;101633.94;;;3.83
78961;BMP280;68362;45.970;12.646;2023-03-13T00:51:31;101642.69;;;3.82
78961;BMP280;68362;45.970;12.646;2023-03-13T00:52:33;101641.72;;;3.83
78961;BMP280;68362;45.970;12.646;2023-03-13T00:53:35;101632.31;;;3.82
78961;BMP280;68362;45.970;12.646;2023-03-13T00:54:37;101635.03;;;3.80
78961;BMP280;68362;45.970;12.646;2023-03-13T00:55:50;101631.81;;;3.78
78961;BMP280;68362;45.970;12.646;2023-03-13T00:56:52;101633.56;;;3.78
78961;BMP280;68362;45.970;12.646;2023-03-13T00:57:54;101631.13;;;3.76
78961;BMP280;68362;45.970;12.646;2023-03-13T00:58:56;101632.22;;;3.73
78961;BMP280;68362;45.970;12.646;2023-03-13T00:59:57;101634.53;;;3.77
78961;BMP280;68362;45.970;12.646;2023-03-13T01:01:13;101631.25;;;3.74
78961;BMP280;68362;45.970;12.646;2023-03-13T01:02:15;101637.56;;;3.72
78961;BMP280;68362;45.970;12.646;2023-03-13T01:03:18;101635.78;;;3.72
78961;BMP280;68362;45.970;12.646;2023-03-13T01:04:20;101629.50;;;3.75
78961;BMP280;68362;45.970;12.646;2023-03-13T01:05:21;101631.25;;;3.74
78961;BMP280;68362;45.970;12.646;2023-03-13T01:06:25;101634.00;;;3.73
78961;BMP280;68362;45.970;12.646;2023-03-13T01:07:28;101628.00;;;3.72
78961;BMP280;68362;45.970;12.646;2023-03-13T01:08:30;101630.72;;;3.71
78961;BMP280;68362;45.970;12.646;2023-03-13T01:09:32;101624.72;;;3.70
78961;BMP280;68362;45.970;12.646;2023-03-13T01:10:34;101626.50;;;3.70
78961;BMP280;68362;45.970;12.646;2023-03-13T01:11:37;101624.72;;;3.70
78961;BMP280;68362;45.970;12.646;2023-03-13T01:12:39;101621.44;;;3.68
78961;BMP280;68362;45.970;12.646;2023-03-13T01:13:41;101626.63;;;3.68
78961;BMP280;68362;45.970;12.646;2023-03-13T01:14:43;101623.38;;;3.66
78961;BMP280;68362;45.970;12.646;2023-03-13T01:15:44;101625.13;;;3.66
78961;BMP280;68362;45.970;12.646;2023-03-13T01:16:46;101622.53;;;3.66
78961;BMP280;68362;45.970;12.646;2023-03-13T01:17:48;101621.09;;;3.63
78961;BMP280;68362;45.970;12.646;2023-03-13T01:18:52;101623.69;;;3.63
78961;BMP280;68362;45.970;12.646;2023-03-13T01:19:55;101621.72;;;3.65
78961;BMP280;68362;45.970;12.646;2023-03-13T01:20:57;101623.50;;;3.65
78961;BMP280;68362;45.970;12.646;2023-03-13T01:21:59;101618.50;;;3.63
78961;BMP280;68362;45.970;12.646;2023-03-13T01:23:00;101612.34;;;3.64
78961;BMP280;68362;45.970;12.646;2023-03-13T01:24:02;101608.09;;;3.63
78961;BMP280;68362;45.970;12.646;2023-03-13T01:25:04;101611.31;;;3.65
78961;BMP280;68362;45.970;12.646;2023-03-13T01:26:07;101604.66;;;3.63
78961;BMP280;68362;45.970;12.646;2023-03-13T01:27:09;101605.63;;;3.62
78961;BMP280;68362;45.970;12.646;2023-03-13T01:28:11;101605.63;;;3.62
78961;BMP280;68362;45.970;12.646;2023-03-13T01:29:12;101609.03;;;3.62
78961;BMP280;68362;45.970;12.646;2023-03-13T01:30:14;101608.09;;;3.63
78961;BMP280;68362;45.970;12.646;2023-03-13T01:31:22;101607.25;;;3.63
78961;BMP280;68362;45.970;12.646;2023-03-13T01:32:24;101608.09;;;3.63
78961;BMP280;68362;45.970;12.646;2023-03-13T01:33:26;101612.47;;;3.63
78961;BMP280;68362;45.970;12.646;2023-03-13T01:34:28;101604.81;;;3.61
78961;BMP280;68362;45.970;12.646;2023-03-13T01:35:29;101605.50;;;3.63
78961;BMP280;68362;45.970;12.646;2023-03-13T01:36:32;101611.63;;;3.62
78961;BMP280;68362;45.970;12.646;2023-03-13T01:37:33;101606.44;;;3.62
78961;BMP280;68362;45.970;12.646;2023-03-13T01:38:36;101605.63;;;3.62
78961;BMP280;68362;45.970;12.646;2023-03-13T01:39:38;101596.22;;;3.61
78961;BMP280;68362;45.970;12.646;2023-03-13T01:40:45;101601.81;;;3.56
78961;BMP280;68362;45.970;12.646;2023-03-13T01:41:47;101603.47;;;3.57
78961;BMP280;68362;45.970;12.646;2023-03-13T01:42:59;101603.47;;;3.57
78961;BMP280;68362;45.970;12.646;2023-03-13T01:44:00;101599.09;;;3.58
78961;BMP280;68362;45.970;12.646;2023-03-13T01:45:02;101596.63;;;3.56
78961;BMP280;68362;45.970;12.646;2023-03-13T01:46:12;101596.78;;;3.55
78961;BMP280;68362;45.970;12.646;2023-03-13T01:47:14;101587.22;;;3.55
78961;BMP280;68362;45.970;12.646;2023-03-13T01:48:16;101586.94;;;3.58
78961;BMP280;68362;45.970;12.646;2023-03-13T01:49:30;101586.13;;;3.58
78961;BMP280;68362;45.970;12.646;2023-03-13T01:50:36;101585.16;;;3.59
78961;BMP280;68362;45.970;12.646;2023-03-13T01:51:39;101584.34;;;3.58
78961;BMP280;68362;45.970;12.646;2023-03-13T01:52:42;101579.16;;;3.58
78961;BMP280;68362;45.970;12.646;2023-03-13T01:53:46;101583.81;;;3.55
78961;BMP280;68362;45.970;12.646;2023-03-13T01:54:56;101576.16;;;3.53
78961;BMP280;68362;45.970;12.646;2023-03-13T01:56:04;101582.97;;;3.54
78961;BMP280;68362;45.970;12.646;2023-03-13T01:57:17;101574.94;;;3.57
78961;BMP280;68362;45.970;12.646;2023-03-13T01:58:20;101581.06;;;3.56
78961;BMP280;68362;45.970;12.646;2023-03-13T01:59:27;101577.53;;;3.57
78961;BMP280;68362;45.970;12.646;2023-03-13T02:00:33;101579.72;;;3.52
78961;BMP280;68362;45.970;12.646;2023-03-13T02:01:36;101586.94;;;3.58
78961;BMP280;68362;45.970;12.646;2023-03-13T02:02:43;101578.63;;;3.55
78961;BMP280;68362;45.970;12.646;2023-03-13T02:03:47;101576.03;;;3.55
78961;BMP280;68362;45.970;12.646;2023-03-13T02:04:52;101574.38;;;3.54
78961;BMP280;68362;45.970;12.646;2023-03-13T02:05:58;101577.78;;;3.54
78961;BMP280;68362;45.970;12.646;2023-03-13T02:07:04;101576.16;;;3.53
78961;BMP280;68362;45.970;12.646;2023-03-13T02:08:12;101574.53;;;3.52
78961;BMP280;68362;45.970;12.646;2023-03-13T02:09:20;101570.47;;;3.49
78961;BMP280;68362;45.970;12.646;2023-03-13T02:10:24;101573.75;;;3.52
78961;BMP280;68362;45.970;12.646;2023-03-13T02:11:28;101574.03;;;3.48
78961;BMP280;68362;45.970;12.646;2023-03-13T02:12:34;101571.44;;;3.48
78961;BMP280;68362;45.970;12.646;2023-03-13T02:13:36;101571.44;;;3.48
78961;BMP280;68362;45.970;12.646;2023-03-13T02:14:40;101569.66;;;3.49
78961;BMP280;68362;45.970;12.646;2023-03-13T02:15:44;101571.44;;;3.48
78961;BMP280;68362;45.970;12.646;2023-03-13T02:16:46;101568.69;;;3.50
78961;BMP280;68362;45.970;12.646;2023-03-13T02:17:52;101564.97;;;3.53
78961;BMP280;68362;45.970;12.646;2023-03-13T02:18:55;101568.56;;;3.52
78961;BMP280;68362;45.970;12.646;2023-03-13T02:19:57;101567.41;;;3.54
78961;BMP280;68362;45.970;12.646;2023-03-13T02:21:07;101560.31;;;3.56
78961;BMP280;68362;45.970;12.646;2023-03-13T02:22:23;101573.97;;;3.58
78961;BMP280;68362;45.970;12.646;2023-03-13T02:23:41;101564.78;;;3.64
78961;BMP280;68362;45.970;12.646;2023-03-13T02:25:57;101563.97;;;3.63
78961;BMP280;68362;45.970;12.646;2023-03-13T02:26:59;101563.66;;;3.66
78961;BMP280;68362;45.970;12.646;2023-03-13T02:28:05;101561.06;;;3.66
78961;BMP280;68362;45.970;12.646;2023-03-13T02:29:09;101565.16;;;3.69
78961;BMP280;68362;45.970;12.646;2023-03-13T02:30:19;101567.09;;;3.67
78961;BMP280;68362;45.970;12.646;2023-03-13T02:31:21;101566.78;;;3.70
78961;BMP280;68362;45.970;12.646;2023-03-13T02:32:23;101567.88;;;3.67
78961;BMP280;68362;45.970;12.646;2023-03-13T02:33:29;101568.69;;;3.68
78961;BMP280;68362;45.970;12.646;2023-03-13T02:34:33;101561.72;;;3.68
78961;BMP280;68362;45.970;12.646;2023-03-13T02:35:36;101564.31;;;3.68
78961;BMP280;68362;45.970;12.646;2023-03-13T02:36:38;101567.59;;;3.70
78961;BMP280;68362;45.970;12.646;2023-03-13T02:37:41;101558.03;;;3.71
78961;BMP280;68362;45.970;12.646;2023-03-13T02:38:50;101564.03;;;3.71
78961;BMP280;68362;45.970;12.646;2023-03-13T02:39:54;101565.69;;;3.72
78961;BMP280;68362;45.970;12.646;2023-03-13T02:40:59;101563.75;;;3.74
78961;BMP280;68362;45.970;12.646;2023-03-13T02:42:02;101567.84;;;3.77
78961;BMP280;68362;45.970;12.646;2023-03-13T02:43:10;101563.75;;;3.74
78961;BMP280;68362;45.970;12.646;2023-03-13T02:44:14;101569.63;;;3.77
78961;BMP280;68362;45.970;12.646;2023-03-13T02:45:17;101570.28;;;3.79
78961;BMP280;68362;45.970;12.646;2023-03-13T02:46:19;101572.72;;;3.80
78961;BMP280;68362;45.970;12.646;2023-03-13T02:47:22;101575.19;;;3.82
78961;BMP280;68362;45.970;12.646;2023-03-13T02:48:37;101570.00;;;3.82
78961;BMP280;68362;45.970;12.646;2023-03-13T02:49:38;101565.34;;;3.85
78961;BMP280;68362;45.970;12.646;2023-03-13T02:50:40;101569.41;;;3.88
78961;BMP280;68362;45.970;12.646;2023-03-13T02:51:43;101570.25;;;3.88
78961;BMP280;68362;45.970;12.646;2023-03-13T02:52:49;101569.09;;;3.91
78961;BMP280;68362;45.970;12.646;2023-03-13T02:53:55;101571.69;;;3.91
78961;BMP280;68362;45.970;12.646;2023-03-13T02:55:02;101571.56;;;3.92
78961;BMP280;68362;45.970;12.646;2023-03-13T02:56:05;101571.41;;;3.94
78961;BMP280;68362;45.970;12.646;2023-03-13T02:57:07;101574.00;;;3.94
78961;BMP280;68362;45.970;12.646;2023-03-13T02:58:09;101575.63;;;3.95
78961;BMP280;68362;45.970;12.646;2023-03-13T02:59:11;101576.19;;;3.98
78961;BMP280;68362;45.970;12.646;2023-03-13T03:00:13;101570.84;;;4.00
78961;BMP280;68362;45.970;12.646;2023-03-13T03:01:17;101575.91;;;4.02
78961;BMP280;68362;45.970;12.646;2023-03-13T03:02:19;101580.25;;;4.01
78961;BMP280;68362;45.970;12.646;2023-03-13T03:03:21;101576.03;;;4.00
78961;BMP280;68362;45.970;12.646;2023-03-13T03:04:24;101586.28;;;4.02
78961;BMP280;68362;45.970;12.646;2023-03-13T03:05:25;101572.47;;;4.01
78961;BMP280;68362;45.970;12.646;2023-03-13T03:06:27;101586.41;;;4.00
78961;BMP280;68362;45.970;12.646;2023-03-13T03:07:29;101582.84;;;4.01
78961;BMP280;68362;45.970;12.646;2023-03-13T03:08:31;101578.91;;;3.97
78961;BMP280;68362;45.970;12.646;2023-03-13T03:09:32;101586.56;;;3.98
78961;BMP280;68362;45.970;12.646;2023-03-13T03:10:35;101581.50;;;3.97
78961;BMP280;68362;45.970;12.646;2023-03-13T03:11:37;101584.13;;;3.97
78961;BMP280;68362;45.970;12.646;2023-03-13T03:12:39;101587.38;;;3.99
78961;BMP280;68362;45.970;12.646;2023-03-13T03:13:41;101585.44;;;4.01
78961;BMP280;68362;45.970;12.646;2023-03-13T03:14:42;101588.72;;;4.03
78961;BMP280;68362;45.970;12.646;2023-03-13T03:15:44;101589.50;;;4.04
78961;BMP280;68362;45.970;12.646;2023-03-13T03:16:45;101591.69;;;4.08
78961;BMP280;68362;45.970;12.646;2023-03-13T03:17:47;101588.13;;;4.09
78961;BMP280;68362;45.970;12.646;2023-03-13T03:18:49;101586.03;;;4.13
78961;BMP280;68362;45.970;12.646;2023-03-13T03:19:50;101585.91;;;4.14
78961;BMP280;68362;45.970;12.646;2023-03-13T03:20:52;101586.19;;;4.11
78961;BMP280;68362;45.970;12.646;2023-03-13T03:21:54;101585.91;;;4.14
78961;BMP280;68362;45.970;12.646;2023-03-13T03:22:56;101588.13;;;4.09
78961;BMP280;68362;45.970;12.646;2023-03-13T03:23:57;101590.44;;;4.12
78961;BMP280;68362;45.970;12.646;2023-03-13T03:24:59;101589.78;;;4.10
78961;BMP280;68362;45.970;12.646;2023-03-13T03:26:02;101584.59;;;4.10
78961;BMP280;68362;45.970;12.646;2023-03-13T03:27:05;101587.47;;;4.07
78961;BMP280;68362;45.970;12.646;2023-03-13T03:28:06;101586.50;;;4.08
78961;BMP280;68362;45.970;12.646;2023-03-13T03:29:08;101582.91;;;4.09
78961;BMP280;68362;45.970;12.646;2023-03-13T03:30:11;101581.97;;;4.10
78961;BMP280;68362;45.970;12.646;2023-03-13T03:31:14;101582.91;;;4.09
78961;BMP280;68362;45.970;12.646;2023-03-13T03:32:16;101582.13;;;4.09
78961;BMP280;68362;45.970;12.646;2023-03-13T03:33:22;101587.03;;;4.12
78961;BMP280;68362;45.970;12.646;2023-03-13T03:34:24;101589.16;;;4.16
78961;BMP280;68362;45.970;12.646;2023-03-13T03:35:26;101588.34;;;4.16
78961;BMP280;68362;45.970;12.646;2023-03-13T03:36:27;101584.78;;;4.17
78961;BMP280;68362;45.970;12.646;2023-03-13T03:37:29;101578.78;;;4.16
78961;BMP280;68362;45.970;12.646;2023-03-13T03:38:31;101583.97;;;4.16
78961;BMP280;68362;45.970;12.646;2023-03-13T03:39:33;101581.09;;;4.19
78961;BMP280;68362;45.970;12.646;2023-03-13T03:40:35;101578.47;;;4.19
78961;BMP280;68362;45.970;12.646;2023-03-13T03:41:36;101576.03;;;4.18
78961;BMP280;68362;45.970;12.646;2023-03-13T03:42:38;101574.72;;;4.14
78961;BMP280;68362;45.970;12.646;2023-03-13T03:43:40;101581.53;;;4.15
78961;BMP280;68362;45.970;12.646;2023-03-13T03:44:42;101577.13;;;4.15
78961;BMP280;68362;45.970;12.646;2023-03-13T03:45:44;101569.66;;;4.12
78961;BMP280;68362;45.970;12.646;2023-03-13T03:46:45;101573.91;;;4.13
78961;BMP280;68362;45.970;12.646;2023-03-13T03:47:47;101573.50;;;4.08
78961;BMP280;68362;45.970;12.646;2023-03-13T03:48:49;101569.00;;;4.10
78961;BMP280;68362;45.970;12.646;2023-03-13T03:49:50;101574.31;;;4.09
78961;BMP280;68362;45.970;12.646;2023-03-13T03:50:52;101570.63;;;4.11
78961;BMP280;68362;45.970;12.646;2023-03-13T03:51:54;101577.72;;;4.09
78961;BMP280;68362;45.970;12.646;2023-03-13T03:52:55;101581.28;;;4.08
78961;BMP280;68362;45.970;12.646;2023-03-13T03:53:57;101575.59;;;4.05
78961;BMP280;68362;45.970;12.646;2023-03-13T03:54:59;101578.19;;;4.05
78961;BMP280;68362;45.970;12.646;2023-03-13T03:56:00;101578.34;;;4.03
78961;BMP280;68362;45.970;12.646;2023-03-13T03:57:02;101576.72;;;4.02
78961;BMP280;68362;45.970;12.646;2023-03-13T03:58:04;101578.63;;;4.00
78961;BMP280;68362;45.970;12.646;2023-03-13T03:59:06;101579.31;;;4.02
78961;BMP280;68362;45.970;12.646;2023-03-13T04:00:08;101582.19;;;3.99
78961;BMP280;68362;45.970;12.646;2023-03-13T04:01:12;101572.09;;;3.96
78961;BMP280;68362;45.970;12.646;2023-03-13T04:02:14;101573.03;;;3.95
78961;BMP280;68362;45.970;12.646;2023-03-13T04:03:16;101575.09;;;3.91
78961;BMP280;68362;45.970;12.646;2023-03-13T04:04:17;101570.09;;;3.90
78961;BMP280;68362;45.970;12.646;2023-03-13T04:05:19;101577.06;;;3.89
78961;BMP280;68362;45.970;12.646;2023-03-13T04:06:20;101573.00;;;3.87
78961;BMP280;68362;45.970;12.646;2023-03-13T04:07:22;101575.72;;;3.85
78961;BMP280;68362;45.970;12.646;2023-03-13T04:08:24;101573.28;;;3.84
78961;BMP280;68362;45.970;12.646;2023-03-13T04:09:26;101580.50;;;3.80
78961;BMP280;68362;45.970;12.646;2023-03-13T04:10:27;101577.09;;;3.80
78961;BMP280;68362;45.970;12.646;2023-03-13T04:11:29;101585.41;;;3.83
78961;BMP280;68362;45.970;12.646;2023-03-13T04:12:30;101582.00;;;3.83
78961;BMP280;68362;45.970;12.646;2023-03-13T04:13:32;101584.75;;;3.81
78961;BMP280;68362;45.970;12.646;2023-03-13T04:14:34;101583.25;;;3.79
78961;BMP280;68362;45.970;12.646;2023-03-13T04:15:38;101573.03;;;3.77
78961;BMP280;68362;45.970;12.646;2023-03-13T04:16:40;101583.09;;;3.80
78961;BMP280;68362;45.970;12.646;2023-03-13T04:17:41;101575.19;;;3.82
78961;BMP280;68362;45.970;12.646;2023-03-13T04:18:43;101585.88;;;3.79
78961;BMP280;68362;45.970;12.646;2023-03-13T04:19:45;101580.97;;;3.76
78961;BMP280;68362;45.970;12.646;2023-03-13T04:20:46;101575.78;;;3.76
78961;BMP280;68362;45.970;12.646;2023-03-13T04:21:48;101579.31;;;3.74
78961;BMP280;68362;45.970;12.646;2023-03-13T04:22:49;101575.78;;;3.76
78961;BMP280;68362;45.970;12.646;2023-03-13T04:23:51;101574.97;;;3.75
78961;BMP280;68362;45.970;12.646;2023-03-13T04:24:53;101576.72;;;3.74
78961;BMP280;68362;45.970;12.646;2023-03-13T04:25:54;101574.00;;;3.76
78961;BMP280;68362;45.970;12.646;2023-03-13T04:26:56;101576.72;;;3.74
78961;BMP280;68362;45.970;12.646;2023-03-13T04:27:58;101572.50;;;3.73
78961;BMP280;68362;45.970;12.646;2023-03-13T04:28:59;101570.59;;;3.76
78961;BMP280;68362;45.970;12.646;2023-03-13T04:30:02;101570.59;;;3.76
78961;BMP280;68362;45.970;12.646;2023-03-13T04:31:04;101576.59;;;3.76
78961;BMP280;68362;45.970;12.646;2023-03-13T04:32:06;101573.56;;;3.81
78961;BMP280;68362;45.970;12.646;2023-03-13T04:33:08;101580.38;;;3.82
78961;BMP280;68362;45.970;12.646;2023-03-13T04:34:10;101570.28;;;3.79
78961;BMP280;68362;45.970;12.646;2023-03-13T04:35:12;101574.81;;;3.77
78961;BMP280;68362;45.970;12.646;2023-03-13T04:36:13;101578.06;;;3.79
78961;BMP280;68362;45.970;12.646;2023-03-13T04:37:15;101570.28;;;3.79
78961;BMP280;68362;45.970;12.646;2023-03-13T04:38:17;101570.13;;;3.80
78961;BMP280;68362;45.970;12.646;2023-03-13T04:39:19;101576.28;;;3.79
78961;BMP280;68362;45.970;12.646;2023-03-13T04:40:20;101581.47;;;3.79
78961;BMP280;68362;45.970;12.646;2023-03-13T04:41:22;101582.28;;;3.80
78961;BMP280;68362;45.970;12.646;2023-03-13T04:42:24;101578.88;;;3.79
78961;BMP280;68362;45.970;12.646;2023-03-13T04:43:25;101585.88;;;3.79
78961;BMP280;68362;45.970;12.646;2023-03-13T04:44:27;101587.50;;;3.80
78961;BMP280;68362;45.970;12.646;2023-03-13T04:45:29;101582.28;;;3.80
78961;BMP280;68362;45.970;12.646;2023-03-13T04:46:30;101587.34;;;3.81
78961;BMP280;68362;45.970;12.646;2023-03-13T04:47:32;101583.94;;;3.81
78961;BMP280;68362;45.970;12.646;2023-03-13T04:48:34;101583.78;;;3.82
78961;BMP280;68362;45.970;12.646;2023-03-13T04:49:36;101579.41;;;3.83
78961;BMP280;68362;45.970;12.646;2023-03-13T04:50:37;101581.72;;;3.86
78961;BMP280;68362;45.970;12.646;2023-03-13T04:51:42;101581.72;;;3.86
78961;BMP280;68362;45.970;12.646;2023-03-13T04:52:44;101577.63;;;3.83
78961;BMP280;68362;45.970;12.646;2023-03-13T04:53:48;101574.91;;;3.85
78961;BMP280;68362;45.970;12.646;2023-03-13T04:54:50;101583.66;;;3.84
78961;BMP280;68362;45.970;12.646;2023-03-13T04:55:52;101584.31;;;3.86
78961;BMP280;68362;45.970;12.646;2023-03-13T04:56:53;101589.50;;;3.86
78961;BMP280;68362;45.970;12.646;2023-03-13T04:57:55;101580.78;;;3.87
78961;BMP280;68362;45.970;12.646;2023-03-13T04:58:57;101585.13;;;3.86
78961;BMP280;68362;45.970;12.646;2023-03-13T04:59:58;101585.00;;;3.88
78961;BMP280;68362;45.970;12.646;2023-03-13T05:01:00;101586.91;;;3.86
78961;BMP280;68362;45.970;12.646;2023-03-13T05:02:01;101584.31;;;3.86
78961;BMP280;68362;45.970;12.646;2023-03-13T05:03:03;101588.00;;;3.83
78961;BMP280;68362;45.970;12.646;2023-03-13T05:04:05;101582.81;;;3.83
78961;BMP280;68362;45.970;12.646;2023-03-13T05:05:07;101582.53;;;3.86
78961;BMP280;68362;45.970;12.646;2023-03-13T05:06:09;101578.47;;;3.84
78961;BMP280;68362;45.970;12.646;2023-03-13T05:07:11;101577.63;;;3.83
78961;BMP280;68362;45.970;12.646;2023-03-13T05:08:12;101584.47;;;3.84
78961;BMP280;68362;45.970;12.646;2023-03-13T05:09:14;101586.91;;;3.86
78961;BMP280;68362;45.970;12.646;2023-03-13T05:10:15;101587.72;;;3.86
78961;BMP280;68362;45.970;12.646;2023-03-13T05:11:17;101586.63;;;3.89
78961;BMP280;68362;45.970;12.646;2023-03-13T05:12:19;101581.00;;;3.93
78961;BMP280;68362;45.970;12.646;2023-03-13T05:13:20;101575.63;;;3.95
78961;BMP280;68362;45.970;12.646;2023-03-13T05:14:22;101572.91;;;3.96
78961;BMP280;68362;45.970;12.646;2023-03-13T05:15:23;101577.28;;;3.96
78961;BMP280;68362;45.970;12.646;2023-03-13T05:16:25;101578.91;;;3.97
78961;BMP280;68362;45.970;12.646;2023-03-13T05:17:27;101584.13;;;3.97
78961;BMP280;68362;45.970;12.646;2023-03-13T05:18:29;101582.19;;;3.99
78961;BMP280;68362;45.970;12.646;2023-03-13T05:19:30;101585.09;;;3.96
78961;BMP280;68362;45.970;12.646;2023-03-13T05:20:32;101590.28;;;3.96
78961;BMP280;68362;45.970;12.646;2023-03-13T05:21:34;101588.63;;;3.95
78961;BMP280;68362;45.970;12.646;2023-03-13T05:22:36;101589.31;;;3.97
78961;BMP280;68362;45.970;12.646;2023-03-13T05:23:38;101597.09;;;3.97
78961;BMP280;68362;45.970;12.646;2023-03-13T05:24:40;101598.06;;;3.96
78961;BMP280;68362;45.970;12.646;2023-03-13T05:25:42;101598.06;;;3.96
78961;BMP280;68362;45.970;12.646;2023-03-13T05:26:44;101599.84;;;3.95
78961;BMP280;68362;45.970;12.646;2023-03-13T05:27:45;101594.38;;;3.98
78961;BMP280;68362;45.970;12.646;2023-03-13T05:28:47;101604.59;;;4.00
78961;BMP280;68362;45.970;12.646;2023-03-13T05:29:49;101604.16;;;4.05
78961;BMP280;68362;45.970;12.646;2023-03-13T05:30:51;101597.16;;;4.05
78961;BMP280;68362;45.970;12.646;2023-03-13T05:31:52;101601.25;;;4.08
78961;BMP280;68362;45.970;12.646;2023-03-13T05:32:54;101595.38;;;4.06
78961;BMP280;68362;45.970;12.646;2023-03-13T05:33:56;101602.38;;;4.05
78961;BMP280;68362;45.970;12.646;2023-03-13T05:34:57;101593.94;;;4.03
78961;BMP280;68362;45.970;12.646;2023-03-13T05:35:59;101595.56;;;4.04
78961;BMP280;68362;45.970;12.646;2023-03-13T05:37:01;101595.56;;;4.04
78961;BMP280;68362;45.970;12.646;2023-03-13T05:38:03;101598.78;;;4.06
78961;BMP280;68362;45.970;12.646;2023-03-13T05:39:04;101595.25;;;4.07
78961;BMP280;68362;45.970;12.646;2023-03-13T05:40:06;101601.91;;;4.10
78961;BMP280;68362;45.970;12.646;2023-03-13T05:41:09;101596.59;;;4.11
78961;BMP280;68362;45.970;12.646;2023-03-13T05:42:11;101601.78;;;4.11
78961;BMP280;68362;45.970;12.646;2023-03-13T05:43:12;101606.97;;;4.11
78961;BMP280;68362;45.970;12.646;2023-03-13T05:44:14;101613.81;;;4.12
78961;BMP280;68362;45.970;12.646;2023-03-13T05:45:16;101612.72;;;4.15
78961;BMP280;68362;45.970;12.646;2023-03-13T05:46:17;101610.09;;;4.15
78961;BMP280;68362;45.970;12.646;2023-03-13T05:47:20;101610.75;;;4.17
78961;BMP280;68362;45.970;12.646;2023-03-13T05:48:21;101615.78;;;4.18
78961;BMP280;68362;45.970;12.646;2023-03-13T05:49:23;101612.91;;;4.21
78961;BMP280;68362;45.970;12.646;2023-03-13T05:50:25;101621.09;;;4.27
78961;BMP280;68362;45.970;12.646;2023-03-13T05:51:26;101612.03;;;4.31
78961;BMP280;68362;45.970;12.646;2023-03-13T05:52:28;101612.84;;;4.31
78961;BMP280;68362;45.970;12.646;2023-03-13T05:53:29;101621.97;;;4.35
78961;BMP280;68362;45.970;12.646;2023-03-13T05:54:31;101622.50;;;4.39
78961;BMP280;68362;45.970;12.646;2023-03-13T05:55:33;101635.16;;;4.42
78961;BMP280;68362;45.970;12.646;2023-03-13T05:56:34;101630.53;;;4.45
78961;BMP280;68362;45.970;12.646;2023-03-13T05:57:36;101631.03;;;4.49
78961;BMP280;68362;45.970;12.646;2023-03-13T05:58:37;101625.53;;;4.52